createdAt,value
2019-05-17T00:01:51.078Z,3.30
2019-05-17T00:04:21.553Z,3.30
2019-05-17T00:06:51.953Z,3.20
2019-05-17T00:09:22.417Z,3.20
2019-05-17T00:11:52.883Z,3.10
2019-05-17T00:14:23.388Z,3.10
2019-05-17T00:16:57.113Z,3.00
2019-05-17T00:19:26.846Z,3.00
2019-05-17T00:21:57.197Z,3.00
2019-05-17T00:24:27.541Z,3.00
2019-05-17T00:26:58.594Z,2.90
2019-05-17T00:29:29.495Z,2.90
2019-05-17T00:32:00.974Z,2.90
2019-05-17T00:34:31.614Z,2.90
2019-05-17T00:37:02.045Z,2.90
2019-05-17T00:39:33.553Z,2.70
2019-05-17T00:42:03.904Z,2.70
2019-05-17T00:44:36.504Z,2.60
2019-05-17T00:47:06.626Z,2.60
2019-05-17T00:49:37.371Z,2.60
2019-05-17T00:52:07.827Z,2.60
2019-05-17T00:54:38.309Z,2.60
2019-05-17T00:57:08.644Z,2.60
2019-05-17T00:59:39.117Z,2.60
2019-05-17T01:02:09.795Z,2.50
2019-05-17T01:04:40.359Z,2.50
2019-05-17T01:07:10.717Z,2.50
2019-05-17T01:09:47.252Z,2.50
2019-05-17T01:12:11.542Z,2.50
2019-05-17T01:14:42.013Z,2.50
2019-05-17T01:17:12.376Z,2.40
2019-05-17T01:19:42.898Z,2.40
2019-05-17T01:22:13.334Z,2.40
2019-05-17T01:24:49.493Z,2.30
2019-05-17T01:27:17.235Z,2.20
2019-05-17T01:29:47.826Z,2.20
2019-05-17T01:32:18.406Z,2.30
2019-05-17T01:34:48.839Z,2.30
2019-05-17T01:37:19.268Z,2.30
2019-05-17T01:39:49.739Z,2.20
2019-05-17T01:42:20.082Z,2.20
2019-05-17T01:44:50.502Z,2.20
2019-05-17T01:47:20.867Z,2.20
2019-05-17T01:49:51.280Z,2.30
2019-05-17T01:52:21.704Z,2.30
2019-05-17T01:54:52.850Z,2.40
2019-05-17T01:57:23.340Z,2.40
2019-05-17T01:59:57.192Z,2.40
2019-05-17T02:02:32.270Z,2.40
2019-05-17T02:05:06.458Z,2.40
2019-05-17T02:07:37.276Z,2.40
2019-05-17T02:10:09.198Z,2.40
2019-05-17T02:12:39.654Z,2.30
2019-05-17T02:15:11.656Z,2.30
2019-05-17T02:17:42.055Z,2.30
2019-05-17T02:20:14.102Z,2.30
2019-05-17T02:22:47.078Z,2.30
2019-05-17T02:25:17.243Z,2.30
2019-05-17T02:27:52.285Z,2.30
2019-05-17T02:30:23.504Z,2.20
2019-05-17T02:32:54.329Z,2.10
2019-05-17T02:35:24.844Z,2.10
2019-05-17T02:37:55.955Z,2.00
2019-05-17T02:40:26.346Z,1.90
2019-05-17T02:42:56.850Z,1.80
2019-05-17T02:45:27.427Z,1.80
2019-05-17T02:47:57.799Z,1.80
2019-05-17T02:50:28.191Z,1.90
2019-05-17T02:52:58.682Z,1.80
2019-05-17T02:55:32.237Z,1.70
2019-05-17T02:58:02.888Z,1.70
2019-05-17T03:00:34.308Z,1.60
2019-05-17T03:03:04.896Z,1.50
2019-05-17T03:05:35.343Z,1.50
2019-05-17T03:08:05.757Z,1.40
2019-05-17T03:10:36.141Z,1.40
2019-05-17T03:13:06.677Z,1.30
2019-05-17T03:15:37.075Z,1.20
2019-05-17T03:18:08.421Z,1.20
2019-05-17T03:20:38.915Z,1.10
2019-05-17T03:23:12.453Z,1.10
2019-05-17T03:25:44.029Z,1.00
2019-05-17T03:28:13.628Z,1.00
2019-05-17T03:30:46.992Z,0.90
2019-05-17T03:33:17.866Z,0.90
2019-05-17T03:35:48.760Z,0.90
2019-05-17T03:38:19.265Z,0.90
2019-05-17T03:41:11.896Z,0.90
2019-05-17T03:43:22.569Z,0.90
2019-05-17T03:45:53.510Z,0.90
2019-05-17T03:48:24.926Z,1.00
2019-05-17T03:50:55.396Z,0.90
2019-05-17T03:53:25.753Z,0.90
2019-05-17T03:55:56.079Z,0.80
2019-05-17T03:58:26.635Z,0.80
2019-05-17T04:01:03.739Z,0.80
2019-05-17T04:03:32.348Z,0.80
2019-05-17T04:06:03.926Z,0.80
2019-05-17T04:08:34.601Z,0.80
2019-05-17T04:11:20.769Z,0.80
2019-05-17T04:13:49.314Z,0.90
2019-05-17T04:16:23.782Z,0.90
2019-05-17T04:18:53.784Z,0.90
2019-05-17T04:21:25.031Z,0.90
2019-05-17T04:30:38.715Z,1.10
2019-05-17T04:33:12.871Z,1.20
2019-05-17T04:38:43.864Z,1.20
2019-05-17T04:41:14.983Z,1.30
2019-05-17T04:50:13.543Z,1.40
2019-05-17T04:52:42.887Z,1.80
2019-05-17T05:05:17.525Z,2.90
2019-05-17T05:07:59.086Z,3.20
2019-05-17T05:10:34.003Z,3.40
2019-05-17T05:13:14.146Z,3.60
2019-05-17T05:15:52.005Z,3.60
2019-05-17T05:18:27.389Z,3.60
2019-05-17T05:21:03.695Z,3.60
2019-05-17T05:45:43.903Z,7.20
2019-05-17T05:51:21.475Z,7.40
2019-05-17T05:53:57.464Z,7.50
2019-05-17T05:56:29.049Z,7.80
2019-05-17T05:59:12.110Z,8.30
2019-05-17T06:01:43.374Z,8.80
2019-05-17T06:04:18.035Z,8.80
2019-05-17T06:06:48.609Z,8.80
2019-05-17T06:09:27.203Z,9.10
2019-05-17T06:11:59.120Z,9.60
2019-05-17T06:26:54.167Z,9.60
2019-05-17T06:29:32.966Z,10.90
2019-05-17T06:32:12.419Z,11.20
2019-05-17T06:34:48.654Z,11.50
2019-05-17T06:37:19.138Z,11.30
2019-05-17T06:43:16.070Z,11.50
2019-05-17T06:46:01.770Z,11.90
2019-05-17T06:48:32.589Z,12.10
2019-05-17T06:51:15.385Z,11.70
2019-05-17T06:53:49.373Z,11.50
2019-05-17T06:56:23.090Z,11.20
2019-05-17T06:58:53.521Z,11.10
2019-05-17T07:01:30.195Z,11.50
2019-05-17T07:04:02.971Z,11.80
2019-05-17T07:06:36.000Z,11.90
2019-05-17T07:09:10.850Z,12.20
2019-05-17T07:11:47.280Z,12.80
2019-05-17T07:14:40.129Z,12.90
2019-05-17T07:17:19.786Z,13.30
2019-05-17T07:20:02.410Z,13.50
2019-05-17T07:22:59.922Z,14.20
2019-05-17T07:25:30.361Z,13.70
2019-05-17T07:34:39.558Z,14.50
2019-05-17T07:37:04.520Z,15.10
2019-05-17T07:40:00.533Z,15.70
2019-05-17T07:42:22.378Z,15.80
2019-05-17T07:44:57.476Z,16.30
2019-05-17T07:50:24.231Z,16.60
2019-05-17T07:52:54.676Z,17.10
2019-05-17T07:55:25.298Z,17.30
2019-05-17T07:58:04.755Z,17.80
2019-05-17T08:03:31.551Z,18.00
2019-05-17T08:06:02.131Z,18.30
2019-05-17T08:08:32.821Z,18.50
2019-05-17T08:11:04.222Z,19.00
2019-05-17T08:22:35.655Z,18.70
2019-05-17T08:25:07.224Z,18.50
2019-05-17T08:27:40.555Z,17.80
2019-05-17T08:36:05.395Z,18.40
2019-05-17T08:38:35.977Z,18.20
2019-05-17T08:41:06.360Z,18.50
2019-05-17T08:43:45.798Z,18.60
2019-05-17T08:46:12.620Z,18.20
2019-05-17T08:48:43.521Z,18.00
2019-05-17T08:51:14.081Z,17.80
2019-05-17T08:53:44.834Z,18.20
2019-05-17T08:56:15.229Z,17.30
2019-05-17T08:58:49.816Z,16.90
2019-05-17T09:01:20.985Z,17.50
2019-05-17T09:03:53.479Z,18.10
2019-05-17T09:06:23.870Z,18.40
2019-05-17T09:08:54.315Z,18.40
2019-05-17T09:20:40.599Z,18.80
2019-05-17T09:26:15.030Z,17.90
2019-05-17T09:29:04.250Z,17.60
2019-05-17T09:31:40.382Z,17.70
2019-05-17T09:34:10.971Z,18.10
2019-05-17T09:36:49.688Z,18.60
2019-05-17T09:39:20.072Z,18.70
2019-05-17T09:41:50.728Z,19.10
2019-05-17T09:44:21.280Z,19.80
2019-05-17T09:46:54.839Z,19.60
2019-05-17T09:49:39.467Z,19.30
2019-05-17T09:52:16.523Z,19.40
2019-05-17T09:54:50.574Z,19.10
2019-05-17T09:57:24.609Z,19.00
2019-05-17T09:59:56.021Z,18.50
2019-05-17T10:02:29.382Z,18.20
2019-05-17T10:05:20.173Z,17.90
2019-05-17T10:07:50.692Z,18.10
2019-05-17T10:10:22.479Z,18.00
2019-05-17T10:12:53.034Z,17.40
2019-05-17T10:15:23.536Z,17.40
2019-05-17T10:17:53.924Z,17.40
2019-05-17T10:20:24.375Z,17.50
2019-05-17T10:22:54.874Z,17.50
2019-05-17T10:25:40.147Z,17.70
2019-05-17T10:28:05.555Z,17.80
2019-05-17T10:30:36.029Z,18.00
2019-05-17T10:36:03.089Z,18.10
2019-05-17T10:38:33.686Z,18.30
2019-05-17T10:41:05.779Z,18.10
2019-05-17T10:43:36.129Z,17.90
2019-05-17T10:46:06.769Z,17.70
2019-05-17T10:48:41.065Z,16.50
2019-05-17T10:51:13.387Z,16.30
2019-05-17T10:53:46.581Z,16.60
2019-05-17T10:56:19.865Z,16.40
2019-05-17T10:58:49.669Z,16.60
2019-05-17T11:01:21.287Z,16.90
2019-05-17T11:03:51.844Z,17.30
2019-05-17T11:06:22.911Z,17.40
2019-05-17T11:08:53.396Z,17.50
2019-05-17T11:11:25.809Z,17.10
2019-05-17T11:13:57.475Z,16.40
2019-05-17T11:16:28.015Z,17.00
2019-05-17T11:18:58.609Z,17.40
2019-05-17T11:21:29.113Z,17.40
2019-05-17T11:23:59.630Z,17.60
2019-05-17T11:26:30.373Z,17.10
2019-05-17T11:29:00.950Z,17.30
2019-05-17T11:31:37.100Z,17.90
2019-05-17T11:34:25.482Z,18.40
2019-05-17T11:36:55.078Z,18.30
2019-05-17T11:39:25.699Z,17.80
2019-05-17T11:41:56.715Z,17.40
2019-05-17T11:44:27.322Z,17.30
2019-05-17T11:47:01.909Z,17.30
2019-05-17T11:53:18.804Z,17.90
2019-05-17T11:55:49.420Z,17.90
2019-05-17T11:58:19.957Z,17.90
2019-05-17T12:00:50.451Z,17.90
2019-05-17T12:03:21.007Z,17.90
2019-05-17T12:05:53.022Z,17.80
2019-05-17T12:08:29.177Z,17.50
2019-05-17T12:11:00.903Z,17.60
2019-05-17T12:13:31.654Z,17.50
2019-05-17T12:16:04.922Z,17.60
2019-05-17T12:18:38.784Z,17.70
2019-05-17T12:21:09.077Z,17.70
2019-05-17T12:23:44.412Z,17.30
2019-05-17T12:26:15.082Z,17.30
2019-05-17T12:28:45.564Z,17.20
2019-05-17T12:31:17.086Z,17.50
2019-05-17T12:33:47.683Z,17.90
2019-05-17T12:36:21.112Z,17.70
2019-05-17T12:38:54.728Z,17.50
2019-05-17T12:41:25.429Z,17.60
2019-05-17T12:43:55.950Z,17.40
2019-05-17T12:46:26.361Z,17.30
2019-05-17T12:48:56.871Z,17.50
2019-05-17T12:51:27.338Z,17.30
2019-05-17T12:53:59.849Z,17.10
2019-05-17T12:56:30.326Z,17.40
2019-05-17T12:59:00.821Z,17.80
2019-05-17T13:01:31.330Z,18.10
2019-05-17T13:04:01.984Z,18.00
2019-05-17T13:06:34.911Z,17.70
2019-05-17T13:09:06.396Z,16.90
2019-05-17T13:15:21.717Z,17.00
2019-05-17T13:17:52.741Z,16.30
2019-05-17T13:20:23.811Z,16.40
2019-05-17T13:22:54.511Z,16.80
2019-05-17T13:25:25.125Z,16.70
2019-05-17T13:27:57.812Z,16.30
2019-05-17T13:30:28.362Z,16.40
2019-05-17T13:32:58.823Z,16.60
2019-05-17T13:35:29.436Z,16.10
2019-05-17T13:37:59.891Z,16.30
2019-05-17T13:40:38.738Z,16.30
2019-05-17T13:43:02.716Z,16.40
2019-05-17T13:45:33.349Z,16.10
2019-05-17T13:48:08.416Z,15.90
2019-05-17T13:50:42.181Z,15.70
2019-05-17T13:53:12.743Z,15.50
2019-05-17T13:55:43.308Z,15.40
2019-05-17T13:58:13.739Z,15.10
2019-05-17T14:00:47.801Z,14.90
2019-05-17T14:03:18.275Z,14.50
2019-05-17T14:05:48.837Z,14.30
2019-05-17T14:08:19.351Z,13.80
2019-05-17T14:10:52.236Z,13.60
2019-05-17T14:13:22.746Z,13.20
2019-05-17T14:15:56.222Z,12.40
2019-05-17T14:18:30.036Z,12.30
2019-05-17T14:21:00.587Z,12.40
2019-05-17T14:23:32.017Z,12.50
2019-05-17T14:26:02.539Z,12.50
2019-05-17T14:28:34.023Z,12.50
2019-05-17T14:31:04.706Z,12.50
2019-05-17T14:33:35.397Z,12.50
2019-05-17T14:36:07.522Z,12.70
2019-05-17T14:38:38.474Z,12.90
2019-05-17T14:41:14.026Z,13.00
2019-05-17T14:43:45.440Z,13.10
2019-05-17T14:46:15.908Z,13.30
2019-05-17T14:48:46.497Z,13.30
2019-05-17T14:51:16.985Z,13.30
2019-05-17T14:53:47.527Z,13.40
2019-05-17T14:56:18.016Z,13.40
2019-05-17T14:58:51.885Z,13.40
2019-05-17T15:01:18.027Z,13.50
2019-05-17T15:03:54.516Z,13.50
2019-05-17T15:06:25.058Z,13.40
2019-05-17T15:08:55.520Z,13.50
2019-05-17T15:11:26.046Z,13.50
2019-05-17T15:13:56.556Z,13.60
2019-05-17T15:16:27.200Z,13.80
2019-05-17T15:18:57.897Z,13.70
2019-05-17T15:21:28.366Z,13.60
2019-05-17T15:23:58.964Z,13.60
2019-05-17T15:26:29.388Z,13.70
2019-05-17T15:28:59.992Z,13.80
2019-05-17T15:31:30.641Z,13.90
2019-05-17T15:34:01.268Z,13.90
2019-05-17T15:36:31.793Z,13.90
2019-05-17T15:39:02.379Z,13.90
2019-05-17T15:41:34.567Z,14.00
2019-05-17T15:44:05.256Z,14.10
2019-05-17T15:46:35.678Z,14.00
2019-05-17T15:49:08.652Z,13.90
2019-05-17T15:51:39.156Z,13.90
2019-05-17T15:54:12.661Z,14.00
2019-05-17T15:56:43.116Z,14.10
2019-05-17T15:59:13.631Z,13.90
2019-05-17T16:01:44.204Z,13.70
2019-05-17T16:04:14.757Z,13.60
2019-05-17T16:06:45.133Z,13.40
2019-05-17T16:09:15.721Z,13.30
2019-05-17T16:11:46.295Z,13.20
2019-05-17T16:14:19.337Z,13.30
2019-05-17T16:16:49.814Z,13.20
2019-05-17T16:19:23.255Z,13.10
2019-05-17T16:21:49.712Z,13.20
2019-05-17T16:24:20.253Z,13.20
2019-05-17T16:26:50.672Z,13.10
2019-05-17T16:29:21.132Z,13.10
2019-05-17T16:31:51.681Z,13.10
2019-05-17T16:34:22.221Z,13.10
2019-05-17T16:36:52.667Z,13.30
2019-05-17T16:39:23.275Z,13.30
2019-05-17T16:42:00.483Z,13.30
2019-05-17T16:44:30.277Z,13.30
2019-05-17T16:47:00.706Z,13.10
2019-05-17T16:49:31.214Z,13.00
2019-05-17T16:52:01.722Z,12.90
2019-05-17T16:54:34.704Z,12.80
2019-05-17T16:57:05.192Z,12.80
2019-05-17T16:59:35.551Z,12.70
2019-05-17T17:02:05.943Z,12.60
2019-05-17T17:04:37.991Z,12.50
2019-05-17T17:07:08.830Z,12.40
2019-05-17T17:09:39.547Z,12.40
2019-05-17T17:12:14.307Z,12.30
2019-05-17T17:14:44.803Z,12.30
2019-05-17T17:17:16.948Z,12.20
2019-05-17T17:19:47.571Z,12.10
2019-05-17T17:22:18.211Z,12.10
2019-05-17T17:24:48.678Z,12.10
2019-05-17T17:27:21.506Z,12.00
2019-05-17T17:29:53.830Z,12.00
2019-05-17T17:32:24.932Z,11.90
2019-05-17T17:34:56.998Z,11.80
2019-05-17T17:37:27.812Z,11.80
2019-05-17T17:43:27.238Z,11.80
2019-05-17T17:45:57.838Z,11.80
2019-05-17T17:48:29.047Z,11.80
2019-05-17T17:50:59.452Z,11.80
2019-05-17T17:53:29.886Z,11.80
2019-05-17T17:56:00.527Z,11.70
2019-05-17T17:58:32.267Z,11.70
2019-05-17T18:01:02.945Z,11.80
2019-05-17T18:03:35.018Z,11.70
2019-05-17T18:06:05.910Z,11.60
2019-05-17T18:08:36.508Z,11.60
2019-05-17T18:11:07.132Z,11.50
2019-05-17T18:17:07.880Z,11.40
2019-05-17T18:19:42.810Z,11.20
2019-05-17T18:22:13.336Z,11.10
2019-05-17T18:24:53.461Z,11.10
2019-05-17T18:27:13.402Z,11.00
2019-05-17T18:29:45.146Z,11.00
2019-05-17T18:32:16.153Z,11.00
2019-05-17T18:34:46.567Z,10.90
2019-05-17T18:37:51.792Z,10.90
2019-05-17T18:40:22.308Z,10.80
2019-05-17T18:42:52.944Z,10.80
2019-05-17T18:45:24.022Z,10.80
2019-05-17T18:47:54.584Z,10.70
2019-05-17T18:50:25.256Z,10.50
2019-05-17T18:52:55.905Z,10.40
2019-05-17T18:55:26.366Z,10.30
2019-05-17T18:57:56.870Z,10.20
2019-05-17T19:00:29.208Z,10.10
2019-05-17T19:02:59.767Z,10.00
2019-05-17T19:05:30.249Z,10.00
2019-05-17T19:08:00.721Z,9.90
2019-05-17T19:10:34.448Z,9.80
2019-05-17T19:13:05.000Z,9.80
2019-05-17T19:15:38.492Z,9.80
2019-05-17T19:18:08.969Z,9.80
2019-05-17T19:20:42.843Z,9.80
2019-05-17T19:23:13.377Z,9.70
2019-05-17T19:25:46.879Z,9.60
2019-05-17T19:28:18.413Z,9.60
2019-05-17T19:30:48.934Z,9.60
2019-05-17T19:33:19.615Z,9.40
2019-05-17T19:35:50.266Z,9.40
2019-05-17T19:38:20.756Z,9.40
2019-05-17T19:44:12.939Z,9.50
2019-05-17T19:46:57.492Z,9.80
2019-05-17T19:52:55.450Z,10.00
2019-05-17T19:55:36.977Z,10.10
2019-05-17T19:58:09.148Z,10.10
2019-05-17T20:00:39.930Z,10.10
2019-05-17T20:03:12.551Z,10.20
2019-05-17T20:05:45.410Z,10.30
2019-05-17T20:08:28.252Z,10.30
2019-05-17T20:11:34.504Z,10.30
2019-05-17T20:14:00.574Z,10.30
2019-05-17T20:16:32.682Z,10.00
2019-05-17T20:19:11.866Z,10.00
2019-05-17T20:21:45.794Z,9.90
2019-05-17T20:24:16.601Z,9.90
2019-05-17T20:29:59.643Z,9.80
2019-05-17T20:32:30.222Z,9.80
2019-05-17T20:35:00.761Z,9.80
2019-05-17T20:37:33.310Z,9.80
2019-05-17T20:40:10.343Z,9.80
2019-05-17T20:42:41.158Z,9.70
2019-05-17T20:45:12.506Z,9.60
2019-05-17T20:47:43.118Z,9.60
2019-05-17T20:50:14.516Z,9.60
2019-05-17T20:52:45.102Z,9.60
2019-05-17T20:55:15.906Z,9.60
2019-05-17T20:57:46.379Z,9.60
2019-05-17T21:00:17.281Z,9.50
2019-05-17T21:02:51.361Z,9.50
2019-05-17T21:05:24.603Z,9.40
2019-05-17T21:07:55.069Z,9.30
2019-05-17T21:10:25.497Z,9.20
2019-05-17T21:12:58.929Z,9.20
2019-05-17T21:15:29.949Z,9.20
2019-05-17T21:18:00.281Z,9.20
2019-05-17T21:20:30.595Z,9.20
2019-05-17T21:23:00.899Z,9.10
2019-05-17T21:25:31.314Z,9.20
2019-05-17T21:28:01.694Z,9.30
2019-05-17T21:30:44.078Z,9.30
2019-05-17T21:33:20.963Z,9.30
2019-05-17T21:35:51.223Z,9.20
2019-05-17T21:38:21.605Z,9.20
2019-05-17T21:40:51.976Z,9.20
2019-05-17T21:43:22.506Z,9.20
2019-05-17T21:46:03.321Z,9.20
2019-05-17T21:48:26.683Z,9.20
2019-05-17T21:50:57.182Z,9.20
2019-05-17T21:53:27.724Z,9.20
2019-05-17T21:55:58.198Z,9.10
2019-05-17T21:58:28.857Z,9.10
2019-05-17T22:01:18.507Z,9.10
2019-05-17T22:03:49.038Z,9.10
2019-05-17T22:06:25.447Z,9.10
2019-05-17T22:08:56.379Z,9.00
2019-05-17T22:11:27.799Z,9.00
2019-05-17T22:13:58.282Z,8.90
2019-05-17T22:16:28.698Z,8.90
2019-05-17T22:18:59.119Z,8.90
2019-05-17T22:21:29.625Z,8.90
2019-05-17T22:24:00.077Z,8.80
2019-05-17T22:26:30.623Z,8.80
2019-05-17T22:29:02.301Z,8.80
2019-05-17T22:31:32.798Z,8.70
2019-05-17T22:34:03.366Z,8.70
2019-05-17T22:36:33.803Z,8.70
2019-05-17T22:39:05.121Z,8.70
2019-05-17T22:41:35.589Z,8.80
2019-05-17T22:44:06.073Z,8.80
2019-05-17T22:46:36.776Z,8.80
2019-05-17T22:49:07.223Z,8.80
2019-05-17T22:51:49.758Z,8.80
2019-05-17T22:54:22.857Z,8.80
2019-05-17T22:56:57.410Z,8.80
2019-05-17T22:59:27.805Z,8.80
2019-05-17T23:01:58.248Z,8.70
2019-05-17T23:04:28.589Z,8.70
2019-05-17T23:07:05.169Z,8.70
2019-05-17T23:09:30.368Z,8.70
2019-05-17T23:12:00.853Z,8.70
2019-05-17T23:14:32.218Z,8.70
2019-05-17T23:17:05.676Z,8.70
2019-05-17T23:19:36.136Z,8.70
2019-05-17T23:22:09.619Z,8.70
2019-05-17T23:24:39.999Z,8.70
2019-05-17T23:27:10.494Z,8.60
2019-05-17T23:29:41.320Z,8.50
2019-05-17T23:32:11.923Z,8.50
2019-05-17T23:34:42.407Z,8.50
2019-05-17T23:37:12.804Z,8.50
2019-05-17T23:39:43.167Z,8.60
2019-05-17T23:42:13.661Z,8.60
2019-05-17T23:44:44.074Z,8.60
2019-05-17T23:47:14.471Z,8.50
2019-05-17T23:50:02.650Z,8.50
2019-05-17T23:52:35.448Z,8.40
2019-05-17T23:55:09.194Z,8.40
2019-05-17T23:57:39.583Z,8.50
